Time;durP1;ratioP1;P1;durP2;ratioP2;P2;SDS_P1;SDS_P2;PMS_P1;PMS_P2;Temp;Humidity;BMP_temperature;BMP_pressure;BME280_temperature;BME280_humidity;BME280_pressure;Samples;Min_cycle;Max_cycle;Signal;HPM_P1;HPM_P2
2023/09/26 00:04:07;;;;;;;;;;;;;;;19.79;58.85;100364.50;10209671;28;930;-83
2023/09/26 00:09:05;;;;;;;;;;;;;;;19.78;58.84;100368.94;10209216;28;847;-82
2023/09/26 00:14:01;;;;;;;;;;;;;;;19.77;58.69;100364.56;10208407;28;1902;-83
2023/09/26 00:18:57;;;;;;;;;;;;;;;19.76;58.45;100368.13;10208344;28;811;-82
2023/09/26 00:23:53;;;;;;;;;;;;;;;19.75;58.67;100368.19;10207784;28;866;-82
2023/09/26 00:28:49;;;;;;;;;;;;;;;19.74;58.84;100364.69;10208434;28;973;-83
2023/09/26 00:33:45;;;;;;;;;;;;;;;19.73;58.93;100367.38;10207638;28;1953;-83
2023/09/26 00:38:41;;;;;;;;;;;;;;;19.73;58.85;100378.84;10206998;28;1300;-82
2023/09/26 00:43:36;;;;;;;;;;;;;;;19.71;58.86;100380.69;10207640;28;825;-83
2023/09/26 00:48:33;;;;;;;;;;;;;;;19.70;58.79;100381.59;10207122;28;938;-83
2023/09/26 00:53:29;;;;;;;;;;;;;;;19.71;59.03;100378.06;10207087;28;1983;-83
2023/09/26 00:58:24;;;;;;;;;;;;;;;19.68;58.93;100378.19;10206805;28;781;-83
2023/09/26 01:03:21;;;;;;;;;;;;;;;19.68;59.02;100388.75;10207830;28;909;-83
2023/09/26 01:08:17;;;;;;;;;;;;;;;19.66;59.11;100380.88;10206972;28;772;-83
2023/09/26 01:13:13;;;;;;;;;;;;;;;19.65;58.87;100373.84;10207246;28;1901;-82
2023/09/26 01:18:09;;;;;;;;;;;;;;;19.64;59.06;100355.38;10206587;28;818;-83
2023/09/26 01:23:08;;;;;;;;;;;;;;;19.64;59.12;100353.59;10205949;28;934;-83
2023/09/26 01:28:07;;;;;;;;;;;;;;;19.63;59.00;100353.66;10206207;28;881;-83
2023/09/26 01:33:03;;;;;;;;;;;;;;;19.61;59.15;100348.44;10204153;28;1894;-83
2023/09/26 01:37:59;;;;;;;;;;;;;;;19.61;59.12;100352.88;10204700;28;1387;-82
2023/09/26 01:42:55;;;;;;;;;;;;;;;19.60;59.29;100343.22;10205070;28;930;-84
2023/09/26 01:47:51;;;;;;;;;;;;;;;19.60;59.14;100348.50;10204311;28;857;-83
2023/09/26 01:52:46;;;;;;;;;;;;;;;19.58;59.17;100345.06;10204767;28;1972;-83
2023/09/26 01:57:42;;;;;;;;;;;;;;;19.58;59.14;100343.28;10205342;28;918;-83
2023/09/26 02:02:39;;;;;;;;;;;;;;;19.57;59.19;100352.16;10204524;28;888;-83
2023/09/26 02:07:35;;;;;;;;;;;;;;;19.56;59.09;100352.19;10205583;28;861;-83
2023/09/26 02:12:31;;;;;;;;;;;;;;;19.55;59.12;100339.91;10204668;28;1894;-83
2023/09/26 02:17:26;;;;;;;;;;;;;;;19.54;59.04;100339.03;10204018;28;958;-83
2023/09/26 02:22:22;;;;;;;;;;;;;;;19.53;59.09;100333.81;10204408;28;777;-82
2023/09/26 02:27:18;;;;;;;;;;;;;;;19.53;59.20;100333.81;10204500;28;803;-83
2023/09/26 02:32:14;;;;;;;;;;;;;;;19.51;59.08;100322.44;10203432;28;1894;-83
2023/09/26 02:37:10;;;;;;;;;;;;;;;19.49;59.23;100318.09;10203711;28;1743;-83
2023/09/26 02:42:06;;;;;;;;;;;;;;;19.48;59.17;100308.41;10204198;28;889;-82
2023/09/26 02:47:02;;;;;;;;;;;;;;;19.48;59.21;100312.84;10209399;28;851;-82
2023/09/26 02:51:58;;;;;;;;;;;;;;;19.48;59.21;100307.56;10211583;28;1910;-83
2023/09/26 02:56:54;;;;;;;;;;;;;;;19.47;59.18;100308.50;10212037;28;811;-82
2023/09/26 03:01:49;;;;;;;;;;;;;;;19.46;59.21;100310.25;10211226;28;917;-83
2023/09/26 03:06:45;;;;;;;;;;;;;;;19.45;59.34;100308.53;10211063;28;859;-82
2023/09/26 03:11:43;;;;;;;;;;;;;;;19.46;59.30;100320.81;10210835;28;1947;-82
2023/09/26 03:16:39;;;;;;;;;;;;;;;19.45;59.36;100313.84;10211096;28;841;-83
2023/09/26 03:21:35;;;;;;;;;;;;;;;19.44;59.05;100312.13;10211070;28;858;-83
2023/09/26 03:26:31;;;;;;;;;;;;;;;19.43;59.22;100310.38;10210903;28;830;-81
2023/09/26 03:31:26;;;;;;;;;;;;;;;19.42;59.30;100306.03;10209468;28;1991;-83
2023/09/26 03:36:22;;;;;;;;;;;;;;;19.42;59.23;100308.69;10210130;28;989;-82
2023/09/26 03:41:18;;;;;;;;;;;;;;;19.41;59.27;100311.38;10211636;28;1194;-82
2023/09/26 03:46:14;;;;;;;;;;;;;;;19.39;59.22;100314.09;10209998;28;862;-83
2023/09/26 03:51:10;;;;;;;;;;;;;;;19.40;59.20;100312.31;10209884;28;814;-82
2023/09/26 03:56:06;;;;;;;;;;;;;;;19.37;59.12;100300.06;10208408;28;1906;-82
2023/09/26 04:01:02;;;;;;;;;;;;;;;19.37;59.13;100310.66;10209005;28;813;-82
2023/09/26 04:05:57;;;;;;;;;;;;;;;19.37;59.29;100305.34;10209422;28;865;-82
2023/09/26 04:10:53;;;;;;;;;;;;;;;19.36;59.18;100300.13;10208834;28;823;-82
2023/09/26 04:15:50;;;;;;;;;;;;;;;19.35;59.27;100301.91;10208966;28;1890;-82
2023/09/26 04:20:46;;;;;;;;;;;;;;;19.29;59.45;100302.19;10208183;28;823;-83
2023/09/26 04:25:42;;;;;;;;;;;;;;;19.38;59.13;100296.50;10207932;28;791;-82
2023/09/26 04:30:38;;;;;;;;;;;;;;;19.42;58.82;100291.97;10207812;28;951;-82
2023/09/26 04:35:34;;;;;;;;;;;;;;;19.43;58.47;100278.66;10208129;28;1898;-82
2023/09/26 04:40:30;;;;;;;;;;;;;;;19.46;58.63;100273.25;10208568;28;1274;-82
2023/09/26 04:45:29;;;;;;;;;;;;;;;19.48;58.81;100267.91;10207970;28;842;-82
2023/09/26 04:50:25;;;;;;;;;;;;;;;19.51;58.65;100261.63;10206971;28;899;-82
2023/09/26 04:55:21;;;;;;;;;;;;;;;19.55;58.51;100260.59;10206622;28;1910;-82
2023/09/26 05:00:17;;;;;;;;;;;;;;;19.58;58.65;100260.44;10207349;28;983;-83
2023/09/26 05:05:13;;;;;;;;;;;;;;;19.60;58.57;100262.09;10207102;28;791;-83
2023/09/26 05:10:09;;;;;;;;;;;;;;;19.64;58.55;100260.19;10205801;28;878;-83
2023/09/26 05:15:06;;;;;;;;;;;;;;;19.64;58.46;100258.38;10206186;28;1894;-82
2023/09/26 05:20:10;;;;;;;;;;;;;;;19.64;58.35;100255.75;10205758;28;1002;-82
2023/09/26 05:25:06;;;;;;;;;;;;;;;19.68;58.28;100261.81;10205807;28;907;-82
2023/09/26 05:30:02;;;;;;;;;;;;;;;19.69;58.33;100263.53;10205803;28;936;-82
2023/09/26 05:35:07;;;;;;;;;;;;;;;19.70;58.26;100260.81;10361326;28;1352;-83
2023/09/26 05:40:06;;;;;;;;;;;;;;;19.70;58.30;100259.94;10361478;28;819;-83
2023/09/26 05:45:02;;;;;;;;;;;;;;;19.72;58.21;100273.09;10360902;28;1033;-83
2023/09/26 05:49:58;;;;;;;;;;;;;;;19.73;58.34;100277.47;10360584;28;827;-83
2023/09/26 05:54:54;;;;;;;;;;;;;;;19.73;58.31;100274.81;10361048;28;1989;-83
2023/09/26 05:59:50;;;;;;;;;;;;;;;19.73;58.31;100274.81;10360841;28;818;-83
2023/09/26 06:04:46;;;;;;;;;;;;;;;19.70;58.48;100274.03;10360625;28;822;-82
2023/09/26 06:09:42;;;;;;;;;;;;;;;19.70;58.35;100270.50;10360692;28;794;-82
2023/09/26 06:14:37;;;;;;;;;;;;;;;19.74;58.06;100266.81;10359866;28;1976;-83
2023/09/26 06:19:33;;;;;;;;;;;;;;;19.70;58.29;100265.22;10359260;28;762;-83
2023/09/26 06:24:29;;;;;;;;;;;;;;;19.70;58.32;100270.50;10359344;28;807;-82
2023/09/26 06:29:25;;;;;;;;;;;;;;;19.67;58.42;100270.66;10359203;28;960;-80
2023/09/26 06:34:21;;;;;;;;;;;;;;;19.66;58.19;100274.19;10358288;28;2024;-79
2023/09/26 06:39:17;;;;;;;;;;;;;;;19.62;58.46;100268.19;10358848;28;874;-78
2023/09/26 06:44:13;;;;;;;;;;;;;;;19.61;58.71;100273.53;10343613;28;770;-79
2023/09/26 06:49:10;;;;;;;;;;;;;;;19.63;58.58;100279.63;10330953;28;870;-79
2023/09/26 06:54:06;;;;;;;;;;;;;;;19.64;58.65;100273.41;10331562;28;1906;-83
2023/09/26 06:59:02;;;;;;;;;;;;;;;19.67;58.42;100265.34;10330761;28;861;-84
2023/09/26 07:03:58;;;;;;;;;;;;;;;19.68;58.17;100273.25;10329800;28;1202;-83
2023/09/26 07:08:55;;;;;;;;;;;;;;;19.73;58.34;100281.00;10330857;28;867;-85
2023/09/26 07:13:51;;;;;;;;;;;;;;;19.78;58.01;100271.06;10331583;28;1949;-83
2023/09/26 07:18:47;;;;;;;;;;;;;;;19.80;58.16;100277.13;10330933;28;857;-83
2023/09/26 07:23:43;;;;;;;;;;;;;;;19.79;58.31;100270.13;10329032;28;839;-83
2023/09/26 07:28:39;;;;;;;;;;;;;;;19.79;58.13;100266.63;10329715;28;918;-84
2023/09/26 07:33:35;;;;;;;;;;;;;;;19.81;58.14;100264.78;10329380;28;1994;-83
2023/09/26 07:38:31;;;;;;;;;;;;;;;19.83;58.40;100266.44;10329119;28;822;-84
2023/09/26 07:43:29;;;;;;;;;;;;;;;19.83;58.28;100255.88;10326793;28;1090;-82
2023/09/26 07:48:25;;;;;;;;;;;;;;;19.83;58.38;100255.88;10327706;28;770;-84
2023/09/26 07:53:21;;;;;;;;;;;;;;;19.85;58.28;100253.13;10327564;28;1961;-84
2023/09/26 07:58:17;;;;;;;;;;;;;;;19.87;58.16;100251.28;10327568;28;878;-84
2023/09/26 08:03:13;;;;;;;;;;;;;;;19.88;58.51;100250.34;10327363;28;1160;-83
2023/09/26 08:08:09;;;;;;;;;;;;;;;19.88;58.32;100253.84;10327579;28;801;-83
2023/09/26 08:13:05;;;;;;;;;;;;;;;19.88;58.44;100253.00;10327000;28;1977;-80
2023/09/26 08:18:01;;;;;;;;;;;;;;;19.90;58.74;100252.00;10327548;28;887;-77
2023/09/26 08:22:57;;;;;;;;;;;;;;;19.93;58.47;100256.28;10326730;28;941;-84
2023/09/26 08:27:53;;;;;;;;;;;;;;;19.92;58.30;100250.16;10326765;28;875;-84
2023/09/26 08:32:49;;;;;;;;;;;;;;;19.92;58.61;100255.44;10326885;28;1957;-84
2023/09/26 08:37:44;;;;;;;;;;;;;;;19.90;58.59;100244.06;10326763;28;825;-85
2023/09/26 08:42:40;;;;;;;;;;;;;;;19.92;58.62;100250.16;10326127;28;809;-82
2023/09/26 08:47:39;;;;;;;;;;;;;;;19.92;58.40;100254.59;10326119;28;931;-84
2023/09/26 08:52:35;;;;;;;;;;;;;;;19.93;58.87;100246.56;10326039;28;1977;-83
2023/09/26 08:57:32;;;;;;;;;;;;;;;19.93;58.67;100243.91;10325452;28;862;-83
2023/09/26 09:02:27;;;;;;;;;;;;;;;19.91;58.53;100243.16;10301392;28;1952;-83
2023/09/26 09:07:24;;;;;;;;;;;;;;;19.89;58.56;100237.06;10314369;28;858;-83
2023/09/26 09:12:21;;;;;;;;;;;;;;;19.90;58.41;100232.63;10284767;28;1897;-85
2023/09/26 09:17:17;;;;;;;;;;;;;;;19.89;58.56;100237.06;10285172;28;833;-84
2023/09/26 09:22:13;;;;;;;;;;;;;;;19.89;58.71;100237.06;10284965;28;940;-84
2023/09/26 09:27:09;;;;;;;;;;;;;;;19.90;58.75;100233.47;10285602;28;964;-83
2023/09/26 09:32:04;;;;;;;;;;;;;;;19.87;58.73;100225.69;10284007;28;1988;-84
2023/09/26 09:37:00;;;;;;;;;;;;;;;19.84;58.74;100220.53;10284228;28;894;-84
2023/09/26 09:41:57;;;;;;;;;;;;;;;19.82;58.78;100219.72;10284520;28;1177;-82
2023/09/26 09:46:53;;;;;;;;;;;;;;;19.81;58.86;100212.72;10324970;28;874;-82
2023/09/26 09:51:50;;;;;;;;;;;;;;;19.80;58.83;100216.28;10324672;28;1969;-84
2023/09/26 09:56:46;;;;;;;;;;;;;;;19.78;58.95;100204.94;10325170;28;844;-83
2023/09/26 10:01:42;;;;;;;;;;;;;;;19.77;58.92;100207.63;10324503;28;841;-72
2023/09/26 10:06:38;;;;;;;;;;;;;;;19.73;58.96;100193.72;10325035;28;822;-71
2023/09/26 10:11:34;;;;;;;;;;;;;;;19.72;58.85;100210.47;10324862;28;1910;-71
2023/09/26 10:16:30;;;;;;;;;;;;;;;19.70;58.94;100192.06;10324506;28;922;-72
2023/09/26 10:21:26;;;;;;;;;;;;;;;19.69;58.88;100186.81;10331166;28;856;-74
2023/09/26 10:26:22;;;;;;;;;;;;;;;19.67;58.86;100180.72;10331365;28;949;-72
2023/09/26 10:31:18;;;;;;;;;;;;;;;19.66;58.82;100174.59;10330207;28;1902;-72
2023/09/26 10:36:14;;;;;;;;;;;;;;;19.65;58.72;100172.00;10331166;28;905;-74
2023/09/26 10:41:10;;;;;;;;;;;;;;;19.67;58.72;100155.13;10330721;28;892;-72
2023/09/26 10:46:06;;;;;;;;;;;;;;;19.64;58.87;100155.25;10331255;28;802;-73
2023/09/26 10:51:02;;;;;;;;;;;;;;;19.62;58.67;100149.19;10330885;28;1953;-73
2023/09/26 10:55:57;;;;;;;;;;;;;;;19.62;58.98;100153.59;10330932;28;932;-73
2023/09/26 11:00:55;;;;;;;;;;;;;;;19.62;58.86;100153.59;10330078;28;861;-73
2023/09/26 11:05:51;;;;;;;;;;;;;;;19.61;58.72;100159.81;10330124;28;898;-72
2023/09/26 11:10:47;;;;;;;;;;;;;;;19.62;58.80;100162.41;10329349;28;1886;-73
2023/09/26 11:15:46;;;;;;;;;;;;;;;19.62;58.82;100161.53;10329801;28;794;-72
2023/09/26 11:20:42;;;;;;;;;;;;;;;19.61;58.81;100146.59;10326562;28;1042;-72
2023/09/26 11:25:38;;;;;;;;;;;;;;;19.61;58.71;100143.97;10329346;28;834;-73
2023/09/26 11:30:33;;;;;;;;;;;;;;;19.60;58.87;100153.69;10328378;28;1914;-72
2023/09/26 11:35:29;;;;;;;;;;;;;;;19.59;58.73;100143.16;10328103;28;1031;-73
2023/09/26 11:40:26;;;;;;;;;;;;;;;19.59;58.85;100144.00;10328555;28;771;-72
2023/09/26 11:45:22;;;;;;;;;;;;;;;19.60;58.76;100131.69;10328498;28;825;-75
2023/09/26 11:50:18;;;;;;;;;;;;;;;19.62;58.92;100138.63;10327720;28;966;-73
2023/09/26 11:55:16;;;;;;;;;;;;;;;19.59;58.85;100129.94;10328127;28;869;-72
2023/09/26 12:00:15;;;;;;;;;;;;;;;19.59;59.08;100129.94;10327369;28;814;-80
2023/09/26 12:05:11;;;;;;;;;;;;;;;19.60;59.02;100131.69;10327655;28;786;-78
2023/09/26 12:10:07;;;;;;;;;;;;;;;19.62;58.98;100127.16;10326420;28;1080;-78
2023/09/26 12:15:03;;;;;;;;;;;;;;;19.62;58.92;100127.16;10327627;28;1902;-81
2023/09/26 12:19:59;;;;;;;;;;;;;;;19.64;58.85;100118.22;10326590;28;822;-81
2023/09/26 12:24:55;;;;;;;;;;;;;;;19.62;58.97;100112.16;10326939;28;909;-81
2023/09/26 12:29:51;;;;;;;;;;;;;;;19.65;58.76;100109.38;10325881;28;871;-80
2023/09/26 12:34:47;;;;;;;;;;;;;;;19.69;58.73;100102.19;10327035;28;1918;-80
2023/09/26 12:39:43;;;;;;;;;;;;;;;19.72;58.55;100103.84;10325594;28;782;-77
2023/09/26 12:44:40;;;;;;;;;;;;;;;19.71;58.64;100097.69;10325144;28;1126;-77
2023/09/26 12:49:38;;;;;;;;;;;;;;;19.69;58.85;100097.75;10326045;28;842;-77
2023/09/26 12:54:34;;;;;;;;;;;;;;;19.77;58.66;100092.13;10325660;28;1902;-78
2023/09/26 12:59:29;;;;;;;;;;;;;;;19.87;58.52;100101.34;10325423;28;807;-82
2023/09/26 13:04:25;;;;;;;;;;;;;;;19.96;58.25;100096.56;10326129;28;814;-79
2023/09/26 13:09:21;;;;;;;;;;;;;;;20.03;58.56;100092.69;10326178;28;829;-79
2023/09/26 13:14:17;;;;;;;;;;;;;;;20.06;58.14;100093.41;10325931;28;1965;-79
2023/09/26 13:19:13;;;;;;;;;;;;;;;20.17;58.13;100107.91;10325596;28;929;-78
2023/09/26 13:24:09;;;;;;;;;;;;;;;20.22;58.05;100101.47;10325430;28;794;-79
2023/09/26 13:29:06;;;;;;;;;;;;;;;20.25;57.85;100101.34;10325156;28;870;-80
2023/09/26 13:34:02;;;;;;;;;;;;;;;20.30;57.91;100101.09;10324825;28;1989;-79
2023/09/26 13:38:59;;;;;;;;;;;;;;;20.32;57.83;100094.81;10325856;28;842;-86
2023/09/26 13:43:54;;;;;;;;;;;;;;;20.46;57.60;100093.28;10324650;28;831;-85
2023/09/26 13:48:50;;;;;;;;;;;;;;;20.54;57.35;100089.38;10324561;28;841;-86
2023/09/26 13:53:46;;;;;;;;;;;;;;;20.62;57.22;100074.88;10327717;28;1898;-85
2023/09/26 13:58:42;;;;;;;;;;;;;;;20.71;57.17;100091.16;10333118;28;938;-84
2023/09/26 14:03:38;;;;;;;;;;;;;;;20.76;57.01;100081.19;10333262;28;948;-85
2023/09/26 14:08:34;;;;;;;;;;;;;;;20.82;57.06;100081.81;10333051;28;1004;-79
2023/09/26 14:13:36;;;;;;;;;;;;;;;20.90;56.71;100076.97;10332342;28;1898;-79
2023/09/26 14:18:34;;;;;;;;;;;;;;;20.93;56.66;100076.81;10331646;28;933;-79
2023/09/26 14:23:30;;;;;;;;;;;;;;;20.99;56.57;100074.72;10331417;28;1378;-79
2023/09/26 14:28:26;;;;;;;;;;;;;;;21.02;56.50;100077.22;10332472;28;795;-79
2023/09/26 14:33:22;;;;;;;;;;;;;;;20.79;57.25;100075.72;10331213;28;1918;-70
2023/09/26 14:38:17;;;;;;;;;;;;;;;20.56;57.73;100081.31;10331819;28;872;-72
2023/09/26 14:43:13;;;;;;;;;;;;;;;20.48;57.93;100073.72;10331293;28;770;-72
2023/09/26 14:48:09;;;;;;;;;;;;;;;20.41;58.12;100074.97;10331179;28;929;-71
2023/09/26 14:53:05;;;;;;;;;;;;;;;20.39;58.24;100078.63;10331500;28;1905;-72
2023/09/26 14:58:01;;;;;;;;;;;;;;;20.35;58.42;100075.25;10330810;28;937;-72
2023/09/26 15:02:57;;;;;;;;;;;;;;;20.34;58.38;100082.34;10330206;28;1107;-73
2023/09/26 15:07:53;;;;;;;;;;;;;;;20.32;58.42;100078.06;10330870;28;936;-72
2023/09/26 15:12:49;;;;;;;;;;;;;;;20.33;58.49;100085.94;10329602;28;1961;-76
2023/09/26 15:17:46;;;;;;;;;;;;;;;20.33;58.58;100083.31;10330549;28;861;-76
2023/09/26 15:22:42;;;;;;;;;;;;;;;20.34;58.64;100084.16;10330219;28;798;-76
2023/09/26 15:27:38;;;;;;;;;;;;;;;20.32;58.71;100073.63;10328999;28;866;-76
2023/09/26 15:32:34;;;;;;;;;;;;;;;20.32;58.68;100078.06;10328877;28;1997;-80
2023/09/26 15:37:31;;;;;;;;;;;;;;;20.28;58.63;100080.00;10329313;28;882;-75
2023/09/26 15:42:27;;;;;;;;;;;;;;;20.29;58.65;100079.06;10327054;28;1117;-75
2023/09/26 15:47:22;;;;;;;;;;;;;;;20.31;58.70;100079.00;10328006;28;865;-76
2023/09/26 15:52:18;;;;;;;;;;;;;;;20.33;58.71;100091.25;10328113;28;1902;-75
2023/09/26 15:57:14;;;;;;;;;;;;;;;20.32;58.65;100089.50;10328484;28;876;-75
2023/09/26 16:02:10;;;;;;;;;;;;;;;20.32;58.67;100094.81;10328493;28;827;-76
2023/09/26 16:07:08;;;;;;;;;;;;;;;20.31;58.74;100092.25;10328524;28;723;-82
2023/09/26 16:12:03;;;;;;;;;;;;;;;20.29;58.94;100089.66;10328458;28;1967;-82
2023/09/26 16:16:59;;;;;;;;;;;;;;;20.29;58.70;100092.31;10326817;28;931;-81
2023/09/26 16:21:55;;;;;;;;;;;;;;;20.28;58.89;100098.53;10327517;28;794;-72
2023/09/26 16:26:51;;;;;;;;;;;;;;;20.27;58.74;100093.31;10327274;28;766;-82
2023/09/26 16:31:47;;;;;;;;;;;;;;;20.26;58.90;100086.31;10327058;28;1975;-81
2023/09/26 16:36:44;;;;;;;;;;;;;;;20.26;58.84;100096.91;10326452;28;960;-81
2023/09/26 16:41:40;;;;;;;;;;;;;;;20.25;59.02;100093.41;10326740;28;1171;-83
2023/09/26 16:46:36;;;;;;;;;;;;;;;20.26;58.93;100099.56;10326498;28;946;-83
2023/09/26 16:51:32;;;;;;;;;;;;;;;20.27;58.81;100096.81;10326228;28;1905;-83
2023/09/26 16:56:28;;;;;;;;;;;;;;;20.29;59.06;100089.66;10326199;28;1031;-82
2023/09/26 17:01:23;;;;;;;;;;;;;;;20.29;58.76;100089.66;10326706;28;928;-83
2023/09/26 17:06:19;;;;;;;;;;;;;;;20.30;58.83;100096.69;10326450;28;830;-83
2023/09/26 17:11:15;;;;;;;;;;;;;;;20.31;59.01;100092.25;10325661;28;1961;-83
2023/09/26 17:16:11;;;;;;;;;;;;;;;20.30;59.00;100086.09;10326206;28;793;-82
2023/09/26 17:21:09;;;;;;;;;;;;;;;20.30;58.91;100083.44;10326332;28;854;-83
2023/09/26 17:26:05;;;;;;;;;;;;;;;20.31;58.99;100105.47;10325817;28;861;-82
2023/09/26 17:31:01;;;;;;;;;;;;;;;20.32;58.81;100104.53;10325020;28;1985;-82
2023/09/26 17:36:03;;;;;;;;;;;;;;;20.33;58.92;100101.81;10325308;28;941;-82
2023/09/26 17:40:59;;;;;;;;;;;;;;;20.33;58.87;100099.19;10325170;28;858;-83
2023/09/26 17:45:55;;;;;;;;;;;;;;;20.35;58.89;100105.22;10324571;28;829;-82
2023/09/26 17:50:51;;;;;;;;;;;;;;;20.36;58.84;100100.81;10324907;28;1894;-82
2023/09/26 17:55:47;;;;;;;;;;;;;;;20.39;58.81;100103.31;10325104;28;960;-82
2023/09/26 18:00:43;;;;;;;;;;;;;;;20.38;58.87;100111.31;10324832;28;877;-82
2023/09/26 18:05:39;;;;;;;;;;;;;;;20.38;59.02;100108.69;10325954;28;873;-82
2023/09/26 18:10:35;;;;;;;;;;;;;;;20.38;58.89;100098.09;10324695;28;1882;-82
2023/09/26 18:15:30;;;;;;;;;;;;;;;20.39;58.87;100102.47;10324593;28;1104;-81
2023/09/26 18:20:26;;;;;;;;;;;;;;;20.40;58.85;100106.81;10325100;28;868;-81
2023/09/26 18:25:22;;;;;;;;;;;;;;;20.40;58.90;100107.66;10323775;28;853;-83
2023/09/26 18:30:18;;;;;;;;;;;;;;;20.41;58.78;100109.41;10324983;28;845;-82
2023/09/26 18:35:14;;;;;;;;;;;;;;;20.40;58.94;100106.81;10324536;28;2036;-84
2023/09/26 18:40:10;;;;;;;;;;;;;;;20.40;58.91;100104.16;10327467;28;826;-82
2023/09/26 18:45:06;;;;;;;;;;;;;;;20.42;58.82;100105.81;10332012;28;841;-82
2023/09/26 18:50:02;;;;;;;;;;;;;;;20.43;58.98;100104.00;10330550;28;988;-82
2023/09/26 18:54:58;;;;;;;;;;;;;;;20.43;58.91;100107.50;10330900;28;1934;-82
2023/09/26 18:59:54;;;;;;;;;;;;;;;20.44;58.79;100114.53;10330758;28;765;-82
2023/09/26 19:04:49;;;;;;;;;;;;;;;20.45;58.88;100118.91;10330122;28;957;-83
2023/09/26 19:09:45;;;;;;;;;;;;;;;20.44;58.85;100121.63;10330498;28;1015;-82
2023/09/26 19:14:42;;;;;;;;;;;;;;;20.43;58.92;100119.91;10330749;28;1965;-83
2023/09/26 19:19:38;;;;;;;;;;;;;;;20.43;58.99;100118.09;10330067;28;901;-83
2023/09/26 19:24:34;;;;;;;;;;;;;;;20.46;58.84;100117.09;10329878;28;909;-83
2023/09/26 19:29:30;;;;;;;;;;;;;;;20.47;59.03;100110.88;10330246;28;876;-83
2023/09/26 19:34:26;;;;;;;;;;;;;;;20.46;59.05;100095.91;10330442;28;1906;-83
2023/09/26 19:39:22;;;;;;;;;;;;;;;20.45;58.90;100095.06;10330240;28;857;-82
2023/09/26 19:44:18;;;;;;;;;;;;;;;20.46;58.77;100103.84;10329699;28;838;-82
2023/09/26 19:49:14;;;;;;;;;;;;;;;20.44;59.09;100106.59;10329486;28;821;-75
2023/09/26 19:54:10;;;;;;;;;;;;;;;20.45;58.85;100110.09;10329192;28;1953;-84
2023/09/26 19:59:05;;;;;;;;;;;;;;;20.43;58.96;100117.25;10328381;28;885;-83
2023/09/26 20:04:01;;;;;;;;;;;;;;;20.42;58.98;100123.50;10328906;28;806;-82
2023/09/26 20:08:58;;;;;;;;;;;;;;;20.41;58.92;100129.69;10328585;28;805;-83
2023/09/26 20:13:54;;;;;;;;;;;;;;;20.40;58.86;100139.44;10327871;28;1893;-82
2023/09/26 20:18:49;;;;;;;;;;;;;;;20.40;59.00;100135.94;10328226;28;925;-81
2023/09/26 20:23:46;;;;;;;;;;;;;;;20.39;59.10;100139.53;10328047;28;807;-82
2023/09/26 20:28:42;;;;;;;;;;;;;;;20.38;58.99;100135.16;10327185;28;849;-81
2023/09/26 20:33:37;;;;;;;;;;;;;;;20.36;58.90;100128.16;10326551;28;1969;-83
2023/09/26 20:38:33;;;;;;;;;;;;;;;20.35;59.02;100137.00;10326227;28;869;-82
2023/09/26 20:43:29;;;;;;;;;;;;;;;20.35;59.04;100144.94;10326652;28;862;-83
2023/09/26 20:48:25;;;;;;;;;;;;;;;20.33;59.12;100138.91;10326414;28;874;-82
2023/09/26 20:53:21;;;;;;;;;;;;;;;20.34;59.09;100145.88;10326422;28;1902;-83
2023/09/26 20:58:17;;;;;;;;;;;;;;;20.33;59.07;100145.94;10326778;28;771;-82
2023/09/26 21:03:15;;;;;;;;;;;;;;;20.32;59.11;100146.91;10326337;28;890;-81
2023/09/26 21:08:11;;;;;;;;;;;;;;;20.31;59.12;100151.34;10326303;28;944;-82
2023/09/26 21:13:06;;;;;;;;;;;;;;;20.30;58.96;100162.88;10326296;28;1902;-82
2023/09/26 21:18:02;;;;;;;;;;;;;;;20.30;59.13;100162.88;10326319;28;876;-82
2023/09/26 21:22:58;;;;;;;;;;;;;;;20.29;59.15;100161.13;10326530;28;891;-82
2023/09/26 21:27:54;;;;;;;;;;;;;;;20.28;59.05;100148.84;10325003;28;1034;-82
2023/09/26 21:32:50;;;;;;;;;;;;;;;20.29;58.99;100144.41;10326050;28;1914;-83
2023/09/26 21:37:46;;;;;;;;;;;;;;;20.28;59.21;100145.34;10324754;28;1060;-82
2023/09/26 21:42:42;;;;;;;;;;;;;;;20.27;59.09;100139.16;10324571;28;918;-82
2023/09/26 21:47:38;;;;;;;;;;;;;;;20.27;59.11;100138.31;10325774;28;869;-82
2023/09/26 21:52:33;;;;;;;;;;;;;;;20.26;59.18;100148.03;10325366;28;1955;-83
2023/09/26 21:57:29;;;;;;;;;;;;;;;20.25;59.04;100154.28;10324857;28;936;-82
2023/09/26 22:02:25;;;;;;;;;;;;;;;20.24;58.77;100135.81;10325865;28;845;-82
2023/09/26 22:07:22;;;;;;;;;;;;;;;20.23;58.93;100139.41;10324726;28;869;-83
2023/09/26 22:12:18;;;;;;;;;;;;;;;20.23;58.90;100131.47;10324617;28;1967;-81
2023/09/26 22:17:14;;;;;;;;;;;;;;;20.23;58.85;100126.16;10331868;28;1539;-82
2023/09/26 22:22:10;;;;;;;;;;;;;;;20.23;58.79;100136.75;10332818;28;928;-82
2023/09/26 22:27:06;;;;;;;;;;;;;;;20.22;58.91;100135.88;10332589;28;855;-82
2023/09/26 22:32:03;;;;;;;;;;;;;;;20.23;58.84;100140.25;10331600;28;1906;-82
2023/09/26 22:36:58;;;;;;;;;;;;;;;20.22;59.12;100121.78;10332244;28;896;-82
2023/09/26 22:41:54;;;;;;;;;;;;;;;20.21;59.12;100117.44;10331383;28;775;-82
2023/09/26 22:46:51;;;;;;;;;;;;;;;20.19;59.09;100128.09;10331327;28;905;-82
2023/09/26 22:51:46;;;;;;;;;;;;;;;20.18;58.95;100123.72;10331054;28;1956;-82
2023/09/26 22:56:42;;;;;;;;;;;;;;;20.17;59.05;100151.09;10330646;28;964;-82
2023/09/26 23:01:38;;;;;;;;;;;;;;;20.16;58.79;100138.81;10331194;28;923;-82
2023/09/26 23:06:34;;;;;;;;;;;;;;;20.14;59.13;100123.00;10329950;28;852;-82
2023/09/26 23:11:30;;;;;;;;;;;;;;;20.14;59.12;100116.84;10330436;28;1898;-82
2023/09/26 23:16:26;;;;;;;;;;;;;;;20.13;58.87;100125.72;10330304;28;865;-82
2023/09/26 23:21:22;;;;;;;;;;;;;;;20.11;58.95;100122.28;10330058;28;969;-83
2023/09/26 23:26:18;;;;;;;;;;;;;;;20.11;58.96;100132.88;10330772;28;832;-84
2023/09/26 23:31:14;;;;;;;;;;;;;;;20.08;59.03;100141.81;10329399;28;1987;-83
2023/09/26 23:36:12;;;;;;;;;;;;;;;20.06;59.11;100156.06;10329785;28;837;-82
2023/09/26 23:41:08;;;;;;;;;;;;;;;20.06;58.94;100156.06;10329149;28;936;-83
2023/09/26 23:46:04;;;;;;;;;;;;;;;20.05;59.14;100157.84;10329837;28;952;-83
2023/09/26 23:51:00;;;;;;;;;;;;;;;20.05;59.29;100146.41;10329586;28;1898;-82
2023/09/26 23:55:56;;;;;;;;;;;;;;;20.03;59.13;100137.69;10329534;28;983;-82
